Time;durP1;ratioP1;P1;durP2;ratioP2;P2;SDS_P1;SDS_P2;PMS_P1;PMS_P2;Temp;Humidity;BMP_temperature;BMP_pressure;BME280_temperature;BME280_humidity;BME280_pressure;Samples;Min_cycle;Max_cycle;Signal;HPM_P1;HPM_P2
2023/04/25 00:01:52;;;;;;;;;;;;;;;;;;7597072;23;19905;-81
2023/04/25 00:04:52;;;;;;;;;;;;;;;;;;7596836;23;19951;-81
2023/04/25 00:07:54;;;;;;;;;;;;;;;;;;7597732;23;19908;-81
2023/04/25 00:10:54;;;;;;;;;;;;;;;;;;7596769;23;19944;-81
2023/04/25 00:13:54;;;;;;;;;;;;;;;;;;7598488;23;19909;-81
2023/04/25 00:16:55;;;;;;;;;;;;;;;;;;7597571;23;19905;-81
2023/04/25 00:19:55;;;;;;;;;;;;;;;;;;7597467;23;19908;-84
2023/04/25 00:22:55;;;;;;;;;;;;;;;;;;7598754;23;19970;-83
2023/04/25 00:25:55;;;;;;;;;;;;;;;;;;7601553;23;19962;-84
2023/04/25 00:28:56;;;;;;;;;;;;;;;;;;7597598;23;19943;-84
2023/04/25 00:31:56;;;;;;;;;;;;;;;;;;7597888;23;19908;-85
2023/04/25 00:34:57;;;;;;;;;;;;;;;;;;7597503;23;19905;-85
2023/04/25 00:37:57;;;;;;;;;;;;;;;;;;7597083;23;20210;-85
2023/04/25 00:40:57;;;;;;;;;;;;;;;;;;7597343;23;20313;-83
2023/04/25 00:43:58;;;;;;;;;;;;;;;;;;7596898;23;19905;-83
2023/04/25 00:46:59;;;;;;;;;;;;;;;;;;7597580;23;19988;-84
2023/04/25 00:49:59;;;;;;;;;;;;;;;;;;7597272;23;20291;-83
2023/04/25 00:53:00;;;;;;;;;;;;;;;;;;7597768;23;19909;-84
2023/04/25 00:56:00;;;;;;;;;;;;;;;;;;7597947;23;20204;-83
2023/04/25 00:59:00;;;;;;;;;;;;;;;;;;7597988;23;19911;-84
2023/04/25 01:02:00;;;;;;;;;;;;;;;;;;7596769;23;20120;-83
2023/04/25 01:05:00;;;;;;;;;;;;;;;;;;7596874;23;19909;-84
2023/04/25 01:08:00;;;;;;;;;;;;;;;;;;7571724;23;19901;-84
2023/04/25 01:11:01;;;;;;;;;;;;;;;;;;7586339;23;19961;-83
2023/04/25 01:14:01;;;;;;;;;;;;;;;;;;7619795;23;19943;-82
2023/04/25 01:17:02;;;;;;;;;;;;;;;;;;7610850;23;19905;-84
2023/04/25 01:20:03;;;;;;;;;;;;;;;;;;7609269;23;19935;-82
2023/04/25 01:23:03;;;;;;;;;;;;;;;;;;7596666;23;19909;-82
2023/04/25 01:26:03;;;;;;;;;;;;;;;;;;7596647;23;19901;-82
2023/04/25 01:29:05;;;;;;;;;;;;;;;;;;7597502;23;19936;-84
2023/04/25 01:32:05;;;;;;;;;;;;;;;;;;7597543;23;19911;-84
2023/04/25 01:35:09;;;;;;;;;;;;;;;;;;7598074;23;19908;-85
2023/04/25 01:38:10;;;;;;;;;;;;;;;;;;7598327;23;19905;-85
2023/04/25 01:41:10;;;;;;;;;;;;;;;;;;7598248;23;19975;-85
2023/04/25 01:44:10;;;;;;;;;;;;;;;;;;7571218;23;19913;-84
2023/04/25 01:47:11;;;;;;;;;;;;;;;;;;7597365;23;20395;-84
2023/04/25 01:50:11;;;;;;;;;;;;;;;;;;7596643;23;19950;-85
2023/04/25 01:53:11;;;;;;;;;;;;;;;;;;7570724;23;19901;-83
2023/04/25 01:56:11;;;;;;;;;;;;;;;;;;7596606;23;19954;-82
2023/04/25 01:59:12;;;;;;;;;;;;;;;;;;7570450;23;19968;-82
2023/04/25 02:02:12;;;;;;;;;;;;;;;;;;7596837;23;20331;-81
2023/04/25 02:05:12;;;;;;;;;;;;;;;;;;7596540;23;19900;-81
2023/04/25 02:08:12;;;;;;;;;;;;;;;;;;7598628;23;19901;-82
2023/04/25 02:11:12;;;;;;;;;;;;;;;;;;7596977;23;19912;-82
2023/04/25 02:14:12;;;;;;;;;;;;;;;;;;7569882;23;20275;-83
2023/04/25 02:17:13;;;;;;;;;;;;;;;;;;7596571;23;19928;-83
2023/04/25 02:20:13;;;;;;;;;;;;;;;;;;7596540;23;19971;-83
2023/04/25 02:23:15;;;;;;;;;;;;;;;;;;7596787;23;19916;-83
2023/04/25 02:26:15;;;;;;;;;;;;;;;;;;7595962;23;19912;-83
2023/04/25 02:29:15;;;;;;;;;;;;;;;;;;7595970;23;19928;-81
2023/04/25 02:32:15;;;;;;;;;;;;;;;;;;7597194;23;19909;-82
2023/04/25 02:35:16;;;;;;;;;;;;;;;;;;7596836;23;20342;-82
2023/04/25 02:38:16;;;;;;;;;;;;;;;;;;7596367;23;20031;-81
2023/04/25 02:41:16;;;;;;;;;;;;;;;;;;7595625;23;20340;-82
2023/04/25 02:44:16;;;;;;;;;;;;;;;;;;7595906;23;19905;-80
2023/04/25 02:47:16;;;;;;;;;;;;;;;;;;7596431;23;19909;-81
2023/04/25 02:50:18;;;;;;;;;;;;;;;;;;7596242;23;19909;-79
2023/04/25 02:53:18;;;;;;;;;;;;;;;;;;7596292;23;20185;-80
2023/04/25 02:56:18;;;;;;;;;;;;;;;;;;7596037;23;20194;-80
2023/04/25 02:59:18;;;;;;;;;;;;;;;;;;7595887;23;20452;-81
2023/04/25 03:02:19;;;;;;;;;;;;;;;;;;7596051;23;19911;-80
2023/04/25 03:05:19;;;;;;;;;;;;;;;;;;7596305;23;20320;-80
2023/04/25 03:08:19;;;;;;;;;;;;;;;;;;7572747;23;19916;-80
2023/04/25 03:11:20;;;;;;;;;;;;;;;;;;7595907;23;19944;-81
2023/04/25 03:14:20;;;;;;;;;;;;;;;;;;7595607;23;19930;-81
2023/04/25 03:17:20;;;;;;;;;;;;;;;;;;7595721;23;19927;-81
2023/04/25 03:20:20;;;;;;;;;;;;;;;;;;7595623;23;19912;-80
2023/04/25 03:23:21;;;;;;;;;;;;;;;;;;7569991;23;19909;-80
2023/04/25 03:26:21;;;;;;;;;;;;;;;;;;7569394;23;19927;-81
2023/04/25 03:29:24;;;;;;;;;;;;;;;;;;7595860;23;19929;-81
2023/04/25 03:32:24;;;;;;;;;;;;;;;;;;7594603;23;19901;-81
2023/04/25 03:35:24;;;;;;;;;;;;;;;;;;7595446;23;20240;-81
2023/04/25 03:38:25;;;;;;;;;;;;;;;;;;7595338;23;20354;-81
2023/04/25 03:41:25;;;;;;;;;;;;;;;;;;7595097;23;19912;-82
2023/04/25 03:44:25;;;;;;;;;;;;;;;;;;7595717;23;19905;-82
2023/04/25 03:47:25;;;;;;;;;;;;;;;;;;7595974;23;20143;-81
2023/04/25 03:50:25;;;;;;;;;;;;;;;;;;7595401;23;19905;-81
2023/04/25 03:53:25;;;;;;;;;;;;;;;;;;7595571;23;20350;-81
2023/04/25 03:56:25;;;;;;;;;;;;;;;;;;7597363;23;19909;-81
2023/04/25 03:59:26;;;;;;;;;;;;;;;;;;7597283;23;19901;-84
2023/04/25 04:02:26;;;;;;;;;;;;;;;;;;7597313;23;19915;-85
2023/04/25 04:05:27;;;;;;;;;;;;;;;;;;7598216;23;20304;-85
2023/04/25 04:08:27;;;;;;;;;;;;;;;;;;7572544;23;20325;-84
2023/04/25 04:11:27;;;;;;;;;;;;;;;;;;7601910;23;19917;-84
2023/04/25 04:14:27;;;;;;;;;;;;;;;;;;7600299;23;19916;-84
2023/04/25 04:17:27;;;;;;;;;;;;;;;;;;7600095;23;19954;-84
2023/04/25 04:20:27;;;;;;;;;;;;;;;;;;7597785;23;19928;-84
2023/04/25 04:23:28;;;;;;;;;;;;;;;;;;7571813;23;19931;-84
2023/04/25 04:26:28;;;;;;;;;;;;;;;;;;7596428;23;19907;-84
2023/04/25 04:29:28;;;;;;;;;;;;;;;;;;7597501;23;19984;-85
2023/04/25 04:32:30;;;;;;;;;;;;;;;;;;7599351;23;19905;-85
2023/04/25 04:35:30;;;;;;;;;;;;;;;;;;7602770;23;19912;-85
2023/04/25 04:38:30;;;;;;;;;;;;;;;;;;7577852;23;19905;-85
2023/04/25 04:41:30;;;;;;;;;;;;;;;;;;7576386;23;20360;-85
2023/04/25 04:44:34;;;;;;;;;;;;;;;;;;7602257;23;19915;-87
2023/04/25 04:47:36;;;;;;;;;;;;;;;;;;7602856;23;19901;-86
2023/04/25 04:50:36;;;;;;;;;;;;;;;;;;7604398;23;19911;-87
2023/04/25 04:53:36;;;;;;;;;;;;;;;;;;7607508;23;19944;-86
2023/04/25 04:56:38;;;;;;;;;;;;;;;;;;7584586;23;19907;-87
2023/04/25 04:59:40;;;;;;;;;;;;;;;;;;7606833;23;19904;-86
2023/04/25 05:02:40;;;;;;;;;;;;;;;;;;7605571;23;19901;-85
2023/04/25 05:05:40;;;;;;;;;;;;;;;;;;7606597;23;19908;-85
2023/04/25 05:08:40;;;;;;;;;;;;;;;;;;7601749;23;19901;-85
2023/04/25 05:11:40;;;;;;;;;;;;;;;;;;7596805;23;19921;-80
2023/04/25 05:14:41;;;;;;;;;;;;;;;;;;7596591;23;19904;-80
2023/04/25 05:17:41;;;;;;;;;;;;;;;;;;7595047;23;19928;-80
2023/04/25 05:20:42;;;;;;;;;;;;;;;;;;7593788;23;19908;-80
2023/04/25 05:23:42;;;;;;;;;;;;;;;;;;7594203;23;19905;-80
2023/04/25 05:26:42;;;;;;;;;;;;;;;;;;7594662;23;19901;-79
2023/04/25 05:29:42;;;;;;;;;;;;;;;;;;7595071;23;19904;-79
2023/04/25 05:32:42;;;;;;;;;;;;;;;;;;7595626;23;19968;-79
2023/04/25 05:35:42;;;;;;;;;;;;;;;;;;7596307;23;20253;-79
2023/04/25 05:38:42;;;;;;;;;;;;;;;;;;7596692;23;19905;-79
2023/04/25 05:41:44;;;;;;;;;;;;;;;;;;7597521;23;19901;-79
2023/04/25 05:44:44;;;;;;;;;;;;;;;;;;7596791;23;19901;-79
2023/04/25 05:47:44;;;;;;;;;;;;;;;;;;7596055;23;19907;-80
2023/04/25 05:50:44;;;;;;;;;;;;;;;;;;7596368;23;19975;-79
2023/04/25 05:53:44;;;;;;;;;;;;;;;;;;7596404;23;19907;-80
2023/04/25 05:56:44;;;;;;;;;;;;;;;;;;7596374;23;19924;-80
2023/04/25 05:59:44;;;;;;;;;;;;;;;;;;7596303;23;19908;-79
2023/04/25 06:02:45;;;;;;;;;;;;;;;;;;7595603;23;19951;-79
2023/04/25 06:05:45;;;;;;;;;;;;;;;;;;7596267;23;20292;-80
2023/04/25 06:08:45;;;;;;;;;;;;;;;;;;7569416;23;19907;-80
2023/04/25 06:11:45;;;;;;;;;;;;;;;;;;7593640;23;19920;-80
2023/04/25 06:14:45;;;;;;;;;;;;;;;;;;7595709;23;19995;-80
2023/04/25 06:17:45;;;;;;;;;;;;;;;;;;7569878;23;19901;-80
2023/04/25 06:20:47;;;;;;;;;;;;;;;;;;7570309;23;19905;-83
2023/04/25 06:23:48;;;;;;;;;;;;;;;;;;7571170;23;19932;-84
2023/04/25 06:26:48;;;;;;;;;;;;;;;;;;7597092;23;19936;-85
2023/04/25 06:29:48;;;;;;;;;;;;;;;;;;7598287;23;19992;-86
2023/04/25 06:32:50;;;;;;;;;;;;;;;;;;7605581;23;19912;-86
2023/04/25 06:35:50;;;;;;;;;;;;;;;;;;7612549;23;19919;-87
2023/04/25 06:38:50;;;;;;;;;;;;;;;;;;7593307;23;19936;-87
2023/04/25 06:41:50;;;;;;;;;;;;;;;;;;7628156;22;19897;-86
2023/04/25 06:44:50;;;;;;;;;;;;;;;;;;7601354;23;19909;-86
2023/04/25 06:47:50;;;;;;;;;;;;;;;;;;7613833;23;19905;-85
2023/04/25 06:50:50;;;;;;;;;;;;;;;;;;7597428;23;19919;-85
2023/04/25 06:53:51;;;;;;;;;;;;;;;;;;7596743;23;19901;-84
2023/04/25 06:56:51;;;;;;;;;;;;;;;;;;7597299;23;19937;-85
2023/04/25 06:59:51;;;;;;;;;;;;;;;;;;7596199;23;19905;-84
2023/04/25 07:02:51;;;;;;;;;;;;;;;;;;7596123;23;19984;-85
2023/04/25 07:05:51;;;;;;;;;;;;;;;;;;7596350;23;20446;-85
2023/04/25 07:08:52;;;;;;;;;;;;;;;;;;7595900;23;19924;-82
2023/04/25 07:11:52;;;;;;;;;;;;;;;;;;7596323;23;19913;-85
2023/04/25 07:14:52;;;;;;;;;;;;;;;;;;7595915;23;19916;-86
2023/04/25 07:17:52;;;;;;;;;;;;;;;;;;7596470;23;19928;-85
2023/04/25 07:20:52;;;;;;;;;;;;;;;;;;7571308;23;19908;-84
2023/04/25 07:23:52;;;;;;;;;;;;;;;;;;7598806;23;19901;-86
2023/04/25 07:26:52;;;;;;;;;;;;;;;;;;7571798;23;20245;-86
2023/04/25 07:29:55;;;;;;;;;;;;;;;;;;7596761;23;19901;-78
2023/04/25 07:32:55;;;;;;;;;;;;;;;;;;7596273;23;19901;-79
2023/04/25 07:35:55;;;;;;;;;;;;;;;;;;7597398;23;19905;-79
2023/04/25 07:38:56;;;;;;;;;;;;;;;;;;7595975;23;19908;-79
2023/04/25 07:41:58;;;;;;;;;;;;;;;;;;7571284;23;19904;-79
2023/04/25 07:44:58;;;;;;;;;;;;;;;;;;7597153;23;19907;-79
2023/04/25 07:47:58;;;;;;;;;;;;;;;;;;7597144;23;19901;-79
2023/04/25 07:50:58;;;;;;;;;;;;;;;;;;7596764;23;19905;-79
2023/04/25 07:53:59;;;;;;;;;;;;;;;;;;7569856;23;19905;-80
2023/04/25 07:56:59;;;;;;;;;;;;;;;;;;7596155;23;20241;-78
2023/04/25 07:59:59;;;;;;;;;;;;;;;;;;7597122;23;20350;-78
2023/04/25 08:03:00;;;;;;;;;;;;;;;;;;7597128;23;19954;-78
2023/04/25 08:06:00;;;;;;;;;;;;;;;;;;7596592;23;19905;-78
2023/04/25 08:09:00;;;;;;;;;;;;;;;;;;7570413;23;19915;-78
2023/04/25 08:12:02;;;;;;;;;;;;;;;;;;7596575;23;19952;-78
2023/04/25 08:15:02;;;;;;;;;;;;;;;;;;7596663;23;20222;-79
2023/04/25 08:18:02;;;;;;;;;;;;;;;;;;7570030;23;19907;-79
2023/04/25 08:21:02;;;;;;;;;;;;;;;;;;7597147;23;19959;-78
2023/04/25 08:24:02;;;;;;;;;;;;;;;;;;7595229;23;20347;-79
2023/04/25 08:27:03;;;;;;;;;;;;;;;;;;7597236;23;19901;-79
2023/04/25 08:30:03;;;;;;;;;;;;;;;;;;7570605;23;19911;-79
2023/04/25 08:33:03;;;;;;;;;;;;;;;;;;7596708;23;19991;-79
2023/04/25 08:36:05;;;;;;;;;;;;;;;;;;7596143;23;19909;-79
2023/04/25 08:39:05;;;;;;;;;;;;;;;;;;7596868;23;19908;-79
2023/04/25 08:42:07;;;;;;;;;;;;;;;;;;7570401;23;19900;-79
2023/04/25 08:45:07;;;;;;;;;;;;;;;;;;7596937;23;19907;-79
2023/04/25 08:48:07;;;;;;;;;;;;;;;;;;7570031;23;19901;-79
2023/04/25 08:51:08;;;;;;;;;;;;;;;;;;7596404;23;19901;-79
2023/04/25 08:54:09;;;;;;;;;;;;;;;;;;7596316;23;20331;-79
2023/04/25 08:57:09;;;;;;;;;;;;;;;;;;7570475;23;19909;-79
2023/04/25 09:00:09;;;;;;;;;;;;;;;;;;7595893;23;20245;-78
2023/04/25 09:03:10;;;;;;;;;;;;;;;;;;7595964;23;20351;-79
2023/04/25 09:06:10;;;;;;;;;;;;;;;;;;7570156;23;19947;-79
2023/04/25 09:09:10;;;;;;;;;;;;;;;;;;7594583;23;19905;-79
2023/04/25 09:12:10;;;;;;;;;;;;;;;;;;7594914;23;19921;-79
2023/04/25 09:15:10;;;;;;;;;;;;;;;;;;7595150;23;19916;-79
2023/04/25 09:18:11;;;;;;;;;;;;;;;;;;7595556;23;19905;-79
2023/04/25 09:21:12;;;;;;;;;;;;;;;;;;7595014;23;19909;-79
2023/04/25 09:24:13;;;;;;;;;;;;;;;;;;7595418;23;20237;-79
2023/04/25 09:27:13;;;;;;;;;;;;;;;;;;7595272;23;19901;-79
2023/04/25 09:30:13;;;;;;;;;;;;;;;;;;7594598;23;19901;-79
2023/04/25 09:33:13;;;;;;;;;;;;;;;;;;7594079;23;19905;-79
2023/04/25 09:36:13;;;;;;;;;;;;;;;;;;7594404;23;19906;-79
2023/04/25 09:39:15;;;;;;;;;;;;;;;;;;7595376;23;20019;-79
2023/04/25 09:42:16;;;;;;;;;;;;;;;;;;7596453;23;19960;-79
2023/04/25 09:45:16;;;;;;;;;;;;;;;;;;7595365;23;19907;-79
2023/04/25 09:48:16;;;;;;;;;;;;;;;;;;7595940;23;20084;-79
2023/04/25 09:51:16;;;;;;;;;;;;;;;;;;7595366;23;19905;-84
2023/04/25 09:54:17;;;;;;;;;;;;;;;;;;7569381;23;19935;-84
2023/04/25 09:57:18;;;;;;;;;;;;;;;;;;7595732;23;19980;-83
2023/04/25 10:00:18;;;;;;;;;;;;;;;;;;7595799;23;19965;-83
2023/04/25 10:03:18;;;;;;;;;;;;;;;;;;7594541;23;19905;-83
2023/04/25 10:06:18;;;;;;;;;;;;;;;;;;7596658;23;19931;-83
2023/04/25 10:09:20;;;;;;;;;;;;;;;;;;7594989;23;19959;-83
2023/04/25 10:12:20;;;;;;;;;;;;;;;;;;7595679;23;20015;-83
2023/04/25 10:15:22;;;;;;;;;;;;;;;;;;7595925;23;19917;-83
2023/04/25 10:18:24;;;;;;;;;;;;;;;;;;7596611;23;19905;-83
2023/04/25 10:21:24;;;;;;;;;;;;;;;;;;7596383;23;20359;-84
2023/04/25 10:24:24;;;;;;;;;;;;;;;;;;7603937;23;19905;-82
2023/04/25 10:27:24;;;;;;;;;;;;;;;;;;7624599;23;19905;-82
2023/04/25 10:30:26;;;;;;;;;;;;;;;;;;7625241;23;19911;-82
2023/04/25 10:33:26;;;;;;;;;;;;;;;;;;7621881;23;19901;-82
2023/04/25 10:36:30;;;;;;;;;;;;;;;;;;7604468;23;19909;-83
2023/04/25 10:39:30;;;;;;;;;;;;;;;;;;7596910;23;19967;-83
2023/04/25 10:42:31;;;;;;;;;;;;;;;;;;7597072;23;19908;-82
2023/04/25 10:45:32;;;;;;;;;;;;;;;;;;7570165;23;19981;-83
2023/04/25 10:48:35;;;;;;;;;;;;;;;;;;7597322;23;19905;-83
2023/04/25 10:51:35;;;;;;;;;;;;;;;;;;7596651;23;19927;-82
2023/04/25 10:54:35;;;;;;;;;;;;;;;;;;7570296;23;20214;-83
2023/04/25 10:57:35;;;;;;;;;;;;;;;;;;7596551;23;19905;-83
2023/04/25 11:00:40;;;;;;;;;;;;;;;;;;7596174;23;19912;-82
2023/04/25 11:03:40;;;;;;;;;;;;;;;;;;7596266;23;19908;-83
2023/04/25 11:06:40;;;;;;;;;;;;;;;;;;7596272;23;19901;-83
2023/04/25 11:09:40;;;;;;;;;;;;;;;;;;7594824;23;19932;-83
2023/04/25 11:12:40;;;;;;;;;;;;;;;;;;7594794;23;19909;-83
2023/04/25 11:15:40;;;;;;;;;;;;;;;;;;7595003;23;19951;-82
2023/04/25 11:18:40;;;;;;;;;;;;;;;;;;7566731;23;19908;-83
2023/04/25 11:21:40;;;;;;;;;;;;;;;;;;7567786;23;20007;-82
2023/04/25 11:24:41;;;;;;;;;;;;;;;;;;7593499;23;19979;-82
2023/04/25 11:27:41;;;;;;;;;;;;;;;;;;7594164;23;19909;-82
2023/04/25 11:30:41;;;;;;;;;;;;;;;;;;7592789;23;19909;-82
2023/04/25 11:33:42;;;;;;;;;;;;;;;;;;7592631;23;20295;-82
2023/04/25 11:36:42;;;;;;;;;;;;;;;;;;7593253;23;19905;-82
2023/04/25 11:39:42;;;;;;;;;;;;;;;;;;7593879;23;20325;-83
2023/04/25 11:42:43;;;;;;;;;;;;;;;;;;7595244;23;19901;-83
2023/04/25 11:45:43;;;;;;;;;;;;;;;;;;7588780;23;20466;-82
2023/04/25 11:48:44;;;;;;;;;;;;;;;;;;7593797;23;19905;-81
2023/04/25 11:51:44;;;;;;;;;;;;;;;;;;7594730;23;20233;-81
2023/04/25 11:54:45;;;;;;;;;;;;;;;;;;7594831;23;19991;-81
2023/04/25 11:57:45;;;;;;;;;;;;;;;;;;7594067;23;19902;-81
2023/04/25 12:00:46;;;;;;;;;;;;;;;;;;7595769;23;19901;-81
2023/04/25 12:03:48;;;;;;;;;;;;;;;;;;7595516;23;19910;-82
2023/04/25 12:06:50;;;;;;;;;;;;;;;;;;7595421;23;19924;-82
2023/04/25 12:09:50;;;;;;;;;;;;;;;;;;7596003;23;19900;-79
2023/04/25 12:12:51;;;;;;;;;;;;;;;;;;7594281;23;19971;-79
2023/04/25 12:15:51;;;;;;;;;;;;;;;;;;7595494;23;19912;-79
2023/04/25 12:18:51;;;;;;;;;;;;;;;;;;7596793;23;19955;-79
2023/04/25 12:21:51;;;;;;;;;;;;;;;;;;7596610;23;19901;-78
2023/04/25 12:24:53;;;;;;;;;;;;;;;;;;7596859;23;19913;-78
2023/04/25 12:27:53;;;;;;;;;;;;;;;;;;7596337;23;19929;-78
2023/04/25 12:30:53;;;;;;;;;;;;;;;;;;7570491;23;20344;-79
2023/04/25 12:33:54;;;;;;;;;;;;;;;;;;7570622;23;19954;-79
2023/04/25 12:36:54;;;;;;;;;;;;;;;;;;7595876;23;19905;-78
2023/04/25 12:39:55;;;;;;;;;;;;;;;;;;7597092;23;19901;-79
2023/04/25 12:42:57;;;;;;;;;;;;;;;;;;7596182;23;20320;-78
2023/04/25 12:45:57;;;;;;;;;;;;;;;;;;7596700;23;19912;-79
2023/04/25 12:48:57;;;;;;;;;;;;;;;;;;7596744;23;19905;-78
2023/04/25 12:51:57;;;;;;;;;;;;;;;;;;7596787;23;19980;-78
2023/04/25 12:54:57;;;;;;;;;;;;;;;;;;7596802;23;19905;-79
2023/04/25 12:57:57;;;;;;;;;;;;;;;;;;7569252;23;19958;-79
2023/04/25 13:00:58;;;;;;;;;;;;;;;;;;7595736;23;19905;-79
2023/04/25 13:03:58;;;;;;;;;;;;;;;;;;7597014;23;19979;-79
2023/04/25 13:06:58;;;;;;;;;;;;;;;;;;7596735;23;19987;-79
2023/04/25 13:09:58;;;;;;;;;;;;;;;;;;7596623;23;19912;-79
2023/04/25 13:12:58;;;;;;;;;;;;;;;;;;7596467;23;20329;-79
2023/04/25 13:15:59;;;;;;;;;;;;;;;;;;7595347;23;19944;-79
2023/04/25 13:18:59;;;;;;;;;;;;;;;;;;7595864;23;19925;-79
2023/04/25 13:21:59;;;;;;;;;;;;;;;;;;7595626;23;20003;-79
2023/04/25 13:25:00;;;;;;;;;;;;;;;;;;7596022;23;19908;-79
2023/04/25 13:28:00;;;;;;;;;;;;;;;;;;7596040;23;19907;-79
2023/04/25 13:31:01;;;;;;;;;;;;;;;;;;7596508;23;19979;-79
2023/04/25 13:34:01;;;;;;;;;;;;;;;;;;7569607;23;19909;-79
2023/04/25 13:37:01;;;;;;;;;;;;;;;;;;7596022;23;19904;-78
2023/04/25 13:40:03;;;;;;;;;;;;;;;;;;7595497;23;19909;-81
2023/04/25 13:43:04;;;;;;;;;;;;;;;;;;7596668;23;19904;-81
2023/04/25 13:46:04;;;;;;;;;;;;;;;;;;7596345;23;19901;-81
2023/04/25 13:49:04;;;;;;;;;;;;;;;;;;7596432;23;20022;-81
2023/04/25 13:52:05;;;;;;;;;;;;;;;;;;7568701;23;19901;-81
2023/04/25 13:55:07;;;;;;;;;;;;;;;;;;7595362;23;19940;-81
2023/04/25 13:58:07;;;;;;;;;;;;;;;;;;7566956;23;19937;-80
2023/04/25 14:01:08;;;;;;;;;;;;;;;;;;7591507;23;20420;-80
2023/04/25 14:04:08;;;;;;;;;;;;;;;;;;7594084;23;19980;-80
2023/04/25 14:07:08;;;;;;;;;;;;;;;;;;7594963;23;20386;-80
2023/04/25 14:10:09;;;;;;;;;;;;;;;;;;7594419;23;19971;-80
2023/04/25 14:13:09;;;;;;;;;;;;;;;;;;7595427;23;20344;-80
2023/04/25 14:16:09;;;;;;;;;;;;;;;;;;7597040;23;19909;-81
2023/04/25 14:19:12;;;;;;;;;;;;;;;;;;7599663;23;19930;-80
2023/04/25 14:22:13;;;;;;;;;;;;;;;;;;7599003;23;19909;-81
2023/04/25 14:25:13;;;;;;;;;;;;;;;;;;7599035;23;19932;-81
2023/04/25 14:28:13;;;;;;;;;;;;;;;;;;7600913;23;20363;-81
2023/04/25 14:31:13;;;;;;;;;;;;;;;;;;7600729;23;19908;-80
2023/04/25 14:34:14;;;;;;;;;;;;;;;;;;7602158;23;20274;-81
2023/04/25 14:37:14;;;;;;;;;;;;;;;;;;7600349;23;19907;-80
2023/04/25 14:40:16;;;;;;;;;;;;;;;;;;7601865;23;20333;-80
2023/04/25 14:43:16;;;;;;;;;;;;;;;;;;7601197;23;19912;-80
2023/04/25 14:46:16;;;;;;;;;;;;;;;;;;7602904;23;19905;-80
2023/04/25 14:49:17;;;;;;;;;;;;;;;;;;7603441;23;20214;-80
2023/04/25 14:52:17;;;;;;;;;;;;;;;;;;7598899;23;19908;-79
2023/04/25 14:55:17;;;;;;;;;;;;;;;;;;7594816;23;19998;-79
2023/04/25 14:58:17;;;;;;;;;;;;;;;;;;7595200;23;20722;-80
2023/04/25 15:01:20;;;;;;;;;;;;;;;;;;7596245;23;19990;-80
2023/04/25 15:04:20;;;;;;;;;;;;;;;;;;7596726;23;19912;-80
2023/04/25 15:07:20;;;;;;;;;;;;;;;;;;7596167;23;20322;-80
2023/04/25 15:10:20;;;;;;;;;;;;;;;;;;7596811;23;20333;-80
2023/04/25 15:13:20;;;;;;;;;;;;;;;;;;7596258;23;19919;-79
2023/04/25 15:16:21;;;;;;;;;;;;;;;;;;7592496;23;20401;-79
2023/04/25 15:19:21;;;;;;;;;;;;;;;;;;7568035;23;19909;-79
2023/04/25 15:22:21;;;;;;;;;;;;;;;;;;7594156;23;20234;-80
2023/04/25 15:25:21;;;;;;;;;;;;;;;;;;7591333;23;19975;-80
2023/04/25 15:28:22;;;;;;;;;;;;;;;;;;7595783;23;19901;-79
2023/04/25 15:31:23;;;;;;;;;;;;;;;;;;7593486;23;19927;-79
2023/04/25 15:34:23;;;;;;;;;;;;;;;;;;7594798;23;19909;-80
2023/04/25 15:37:23;;;;;;;;;;;;;;;;;;7596859;23;20022;-79
2023/04/25 15:40:23;;;;;;;;;;;;;;;;;;7594571;23;19905;-79
2023/04/25 15:43:25;;;;;;;;;;;;;;;;;;7593514;23;20329;-79
2023/04/25 15:46:25;;;;;;;;;;;;;;;;;;7595300;23;19911;-80
2023/04/25 15:49:27;;;;;;;;;;;;;;;;;;7569412;23;19905;-80
2023/04/25 15:52:27;;;;;;;;;;;;;;;;;;7597599;23;19905;-80
2023/04/25 15:55:28;;;;;;;;;;;;;;;;;;7598238;23;19955;-80
2023/04/25 15:58:28;;;;;;;;;;;;;;;;;;7597359;23;20329;-80
2023/04/25 16:01:29;;;;;;;;;;;;;;;;;;7595639;23;19912;-77
2023/04/25 16:04:34;;;;;;;;;;;;;;;;;;7595851;23;19905;-77
2023/04/25 16:07:34;;;;;;;;;;;;;;;;;;7595061;23;19969;-77
2023/04/25 16:10:35;;;;;;;;;;;;;;;;;;7595302;23;19905;-77
2023/04/25 16:13:35;;;;;;;;;;;;;;;;;;7595339;23;19901;-77
2023/04/25 16:16:35;;;;;;;;;;;;;;;;;;7594897;23;19995;-77
2023/04/25 16:19:36;;;;;;;;;;;;;;;;;;7594696;23;19901;-77
2023/04/25 16:22:36;;;;;;;;;;;;;;;;;;7594901;23;19983;-76
2023/04/25 16:25:36;;;;;;;;;;;;;;;;;;7595377;23;19905;-77
2023/04/25 16:28:37;;;;;;;;;;;;;;;;;;7595504;23;20349;-77
2023/04/25 16:31:37;;;;;;;;;;;;;;;;;;7595092;23;19940;-77
2023/04/25 16:34:37;;;;;;;;;;;;;;;;;;7595136;23;19908;-77
2023/04/25 16:37:37;;;;;;;;;;;;;;;;;;7595113;23;19974;-76
2023/04/25 16:40:37;;;;;;;;;;;;;;;;;;7595233;23;19924;-76
2023/04/25 16:43:39;;;;;;;;;;;;;;;;;;7596054;23;19974;-76
2023/04/25 16:46:39;;;;;;;;;;;;;;;;;;7595704;23;20293;-75
2023/04/25 16:49:40;;;;;;;;;;;;;;;;;;7595474;23;20373;-76
2023/04/25 16:52:40;;;;;;;;;;;;;;;;;;7596251;23;19900;-76
2023/04/25 16:55:40;;;;;;;;;;;;;;;;;;7594954;23;19988;-76
2023/04/25 16:58:40;;;;;;;;;;;;;;;;;;7594307;23;19901;-75
2023/04/25 17:01:40;;;;;;;;;;;;;;;;;;7595449;23;20708;-76
2023/04/25 17:04:40;;;;;;;;;;;;;;;;;;7569935;23;19901;-75
2023/04/25 17:07:41;;;;;;;;;;;;;;;;;;7595852;23;19901;-75
2023/04/25 17:10:41;;;;;;;;;;;;;;;;;;7596489;23;19901;-79
2023/04/25 17:13:42;;;;;;;;;;;;;;;;;;7596353;23;19924;-79
2023/04/25 17:16:43;;;;;;;;;;;;;;;;;;7596738;23;20256;-79
2023/04/25 17:19:43;;;;;;;;;;;;;;;;;;7596563;23;19954;-79
2023/04/25 17:22:43;;;;;;;;;;;;;;;;;;7596981;23;19911;-80
2023/04/25 17:25:43;;;;;;;;;;;;;;;;;;7596636;23;20252;-79
2023/04/25 17:28:47;;;;;;;;;;;;;;;;;;7596635;23;19940;-80
2023/04/25 17:31:47;;;;;;;;;;;;;;;;;;7596436;23;20322;-79
2023/04/25 17:34:48;;;;;;;;;;;;;;;;;;7571181;23;19909;-80
2023/04/25 17:37:49;;;;;;;;;;;;;;;;;;7596213;23;19908;-78
2023/04/25 17:40:49;;;;;;;;;;;;;;;;;;7596044;23;20393;-78
2023/04/25 17:43:50;;;;;;;;;;;;;;;;;;7595932;23;19904;-78
2023/04/25 17:46:50;;;;;;;;;;;;;;;;;;7596196;23;19901;-78
2023/04/25 17:49:51;;;;;;;;;;;;;;;;;;7594804;23;19942;-78
2023/04/25 17:52:51;;;;;;;;;;;;;;;;;;7594830;23;19964;-79
2023/04/25 17:55:51;;;;;;;;;;;;;;;;;;7594769;23;19912;-79
2023/04/25 17:58:51;;;;;;;;;;;;;;;;;;7596339;23;19904;-80
2023/04/25 18:01:51;;;;;;;;;;;;;;;;;;7597237;23;19901;-79
2023/04/25 18:04:53;;;;;;;;;;;;;;;;;;7596954;23;20017;-80
2023/04/25 18:07:53;;;;;;;;;;;;;;;;;;7596800;23;19950;-80
2023/04/25 18:10:53;;;;;;;;;;;;;;;;;;7596878;23;19909;-81
2023/04/25 18:13:53;;;;;;;;;;;;;;;;;;7596666;23;19907;-80
2023/04/25 18:16:53;;;;;;;;;;;;;;;;;;7567106;23;19991;-80
2023/04/25 18:19:54;;;;;;;;;;;;;;;;;;7569478;23;19900;-81
2023/04/25 18:22:54;;;;;;;;;;;;;;;;;;7595833;23;19983;-81
2023/04/25 18:25:54;;;;;;;;;;;;;;;;;;7595140;23;20241;-80
2023/04/25 18:28:54;;;;;;;;;;;;;;;;;;7595086;23;19936;-80
2023/04/25 18:31:54;;;;;;;;;;;;;;;;;;7594217;23;19923;-81
2023/04/25 18:34:55;;;;;;;;;;;;;;;;;;7596138;23;19909;-80
2023/04/25 18:37:55;;;;;;;;;;;;;;;;;;7596048;23;19904;-81
2023/04/25 18:40:55;;;;;;;;;;;;;;;;;;7595798;23;19983;-81
2023/04/25 18:43:59;;;;;;;;;;;;;;;;;;7594514;23;19901;-81
2023/04/25 18:47:00;;;;;;;;;;;;;;;;;;7595258;23;19912;-81
2023/04/25 18:50:00;;;;;;;;;;;;;;;;;;7593916;23;19905;-81
2023/04/25 18:53:01;;;;;;;;;;;;;;;;;;7594639;23;19908;-80
2023/04/25 18:56:01;;;;;;;;;;;;;;;;;;7595677;23;19908;-80
2023/04/25 18:59:01;;;;;;;;;;;;;;;;;;7595768;23;19904;-80
2023/04/25 19:02:03;;;;;;;;;;;;;;;;;;7569654;23;20321;-80
2023/04/25 19:05:03;;;;;;;;;;;;;;;;;;7594336;23;20222;-80
2023/04/25 19:08:03;;;;;;;;;;;;;;;;;;7595348;23;19923;-80
2023/04/25 19:11:05;;;;;;;;;;;;;;;;;;7593896;23;19943;-76
2023/04/25 19:14:05;;;;;;;;;;;;;;;;;;7590915;23;19905;-76
2023/04/25 19:17:05;;;;;;;;;;;;;;;;;;7595085;23;20245;-76
2023/04/25 19:20:05;;;;;;;;;;;;;;;;;;7594920;23;19912;-76
2023/04/25 19:23:05;;;;;;;;;;;;;;;;;;7594921;23;19908;-76
2023/04/25 19:26:06;;;;;;;;;;;;;;;;;;7595980;23;19905;-76
2023/04/25 19:29:06;;;;;;;;;;;;;;;;;;7596387;23;19951;-76
2023/04/25 19:32:06;;;;;;;;;;;;;;;;;;7570321;23;19905;-76
2023/04/25 19:35:07;;;;;;;;;;;;;;;;;;7596779;23;19905;-76
2023/04/25 19:38:07;;;;;;;;;;;;;;;;;;7596401;23;20278;-76
2023/04/25 19:41:07;;;;;;;;;;;;;;;;;;7570477;23;19966;-76
2023/04/25 19:44:07;;;;;;;;;;;;;;;;;;7596022;23;19995;-76
2023/04/25 19:47:10;;;;;;;;;;;;;;;;;;7596511;23;19908;-77
2023/04/25 19:50:10;;;;;;;;;;;;;;;;;;7599614;23;20510;-77
2023/04/25 19:53:10;;;;;;;;;;;;;;;;;;7599983;23;19905;-77
2023/04/25 19:56:10;;;;;;;;;;;;;;;;;;7598483;23;19912;-77
2023/04/25 19:59:10;;;;;;;;;;;;;;;;;;7596668;23;19955;-77
2023/04/25 20:02:10;;;;;;;;;;;;;;;;;;7594795;23;19989;-76
2023/04/25 20:05:10;;;;;;;;;;;;;;;;;;7595978;23;19904;-76
2023/04/25 20:08:11;;;;;;;;;;;;;;;;;;7597162;23;19908;-76
2023/04/25 20:11:11;;;;;;;;;;;;;;;;;;7593173;23;19910;-77
2023/04/25 20:14:11;;;;;;;;;;;;;;;;;;7596163;23;20329;-77
2023/04/25 20:17:13;;;;;;;;;;;;;;;;;;7570322;23;20313;-77
2023/04/25 20:20:13;;;;;;;;;;;;;;;;;;7596492;23;19912;-76
2023/04/25 20:23:13;;;;;;;;;;;;;;;;;;7595657;23;19936;-77
2023/04/25 20:26:14;;;;;;;;;;;;;;;;;;7596097;23;19988;-77
2023/04/25 20:29:14;;;;;;;;;;;;;;;;;;7596021;23;19912;-76
2023/04/25 20:32:14;;;;;;;;;;;;;;;;;;7596647;23;19989;-77